sensor_id;sensor_type;location;lat;lon;timestamp;P1;durP1;ratioP1;P2;durP2;ratioP2
78818;SDS011;68166;55.090;37.460;2023-08-01T00:03:42;7.38;;;3.45;;
78818;SDS011;68166;55.090;37.460;2023-08-01T00:08:44;5.40;;;3.05;;
78818;SDS011;68166;55.090;37.460;2023-08-01T00:13:46;6.18;;;2.85;;
78818;SDS011;68166;55.090;37.460;2023-08-01T00:18:48;4.25;;;2.17;;
78818;SDS011;68166;55.090;37.460;2023-08-01T00:23:50;7.60;;;2.85;;
78818;SDS011;68166;55.090;37.460;2023-08-01T00:28:53;8.27;;;2.60;;
78818;SDS011;68166;55.090;37.460;2023-08-01T00:33:54;4.50;;;2.50;;
78818;SDS011;68166;55.090;37.460;2023-08-01T00:38:57;10.90;;;2.75;;
78818;SDS011;68166;55.090;37.460;2023-08-01T00:43:59;6.70;;;2.50;;
78818;SDS011;68166;55.090;37.460;2023-08-01T00:49:01;5.40;;;2.35;;
78818;SDS011;68166;55.090;37.460;2023-08-01T00:54:04;4.38;;;2.58;;
78818;SDS011;68166;55.090;37.460;2023-08-01T00:59:05;4.88;;;2.38;;
78818;SDS011;68166;55.090;37.460;2023-08-01T01:04:08;4.22;;;2.15;;
78818;SDS011;68166;55.090;37.460;2023-08-01T01:09:16;4.00;;;2.08;;
78818;SDS011;68166;55.090;37.460;2023-08-01T01:14:18;2.88;;;2.30;;
78818;SDS011;68166;55.090;37.460;2023-08-01T01:19:20;14.60;;;2.55;;
78818;SDS011;68166;55.090;37.460;2023-08-01T01:24:22;4.53;;;2.00;;
78818;SDS011;68166;55.090;37.460;2023-08-01T01:29:25;3.47;;;2.45;;
78818;SDS011;68166;55.090;37.460;2023-08-01T01:34:28;5.85;;;2.05;;
78818;SDS011;68166;55.090;37.460;2023-08-01T01:39:30;15.52;;;3.05;;
78818;SDS011;68166;55.090;37.460;2023-08-01T01:44:32;5.05;;;2.40;;
78818;SDS011;68166;55.090;37.460;2023-08-01T01:49:34;4.88;;;2.25;;
78818;SDS011;68166;55.090;37.460;2023-08-01T01:54:35;7.85;;;3.20;;
78818;SDS011;68166;55.090;37.460;2023-08-01T01:59:37;3.45;;;2.28;;
78818;SDS011;68166;55.090;37.460;2023-08-01T02:04:39;4.45;;;2.33;;
78818;SDS011;68166;55.090;37.460;2023-08-01T02:09:41;4.30;;;1.98;;
78818;SDS011;68166;55.090;37.460;2023-08-01T02:14:43;4.03;;;2.47;;
78818;SDS011;68166;55.090;37.460;2023-08-01T02:19:45;5.22;;;2.25;;
78818;SDS011;68166;55.090;37.460;2023-08-01T02:24:47;5.38;;;2.55;;
78818;SDS011;68166;55.090;37.460;2023-08-01T02:29:49;5.43;;;2.65;;
78818;SDS011;68166;55.090;37.460;2023-08-01T02:34:51;3.38;;;2.17;;
78818;SDS011;68166;55.090;37.460;2023-08-01T02:39:55;3.83;;;2.30;;
78818;SDS011;68166;55.090;37.460;2023-08-01T02:44:57;7.05;;;2.22;;
78818;SDS011;68166;55.090;37.460;2023-08-01T02:49:59;6.07;;;3.35;;
78818;SDS011;68166;55.090;37.460;2023-08-01T02:55:01;6.68;;;2.58;;
78818;SDS011;68166;55.090;37.460;2023-08-01T03:00:03;4.60;;;2.78;;
78818;SDS011;68166;55.090;37.460;2023-08-01T03:05:07;4.22;;;2.83;;
78818;SDS011;68166;55.090;37.460;2023-08-01T03:10:09;6.53;;;3.15;;
78818;SDS011;68166;55.090;37.460;2023-08-01T03:15:12;9.48;;;2.83;;
78818;SDS011;68166;55.090;37.460;2023-08-01T03:20:14;5.93;;;3.30;;
78818;SDS011;68166;55.090;37.460;2023-08-01T03:25:16;6.03;;;2.60;;
78818;SDS011;68166;55.090;37.460;2023-08-01T03:30:18;8.82;;;3.38;;
78818;SDS011;68166;55.090;37.460;2023-08-01T03:35:20;8.10;;;4.25;;
78818;SDS011;68166;55.090;37.460;2023-08-01T03:40:22;7.28;;;3.38;;
78818;SDS011;68166;55.090;37.460;2023-08-01T03:45:24;6.70;;;4.10;;
78818;SDS011;68166;55.090;37.460;2023-08-01T03:50:26;6.72;;;3.85;;
78818;SDS011;68166;55.090;37.460;2023-08-01T03:55:28;6.80;;;4.00;;
78818;SDS011;68166;55.090;37.460;2023-08-01T04:00:33;7.20;;;4.05;;
78818;SDS011;68166;55.090;37.460;2023-08-01T04:05:35;8.35;;;4.40;;
78818;SDS011;68166;55.090;37.460;2023-08-01T04:10:37;7.55;;;4.68;;
78818;SDS011;68166;55.090;37.460;2023-08-01T04:15:39;7.25;;;4.10;;
78818;SDS011;68166;55.090;37.460;2023-08-01T04:20:41;8.18;;;4.43;;
78818;SDS011;68166;55.090;37.460;2023-08-01T04:25:43;9.68;;;4.90;;
78818;SDS011;68166;55.090;37.460;2023-08-01T04:30:48;6.97;;;3.80;;
78818;SDS011;68166;55.090;37.460;2023-08-01T04:35:51;7.10;;;3.97;;
78818;SDS011;68166;55.090;37.460;2023-08-01T04:40:53;9.25;;;3.92;;
78818;SDS011;68166;55.090;37.460;2023-08-01T04:45:55;8.35;;;5.05;;
78818;SDS011;68166;55.090;37.460;2023-08-01T04:50:57;8.93;;;4.25;;
78818;SDS011;68166;55.090;37.460;2023-08-01T04:55:59;8.18;;;3.72;;
78818;SDS011;68166;55.090;37.460;2023-08-01T05:01:00;6.68;;;4.97;;
78818;SDS011;68166;55.090;37.460;2023-08-01T05:06:02;6.70;;;3.67;;
78818;SDS011;68166;55.090;37.460;2023-08-01T05:11:04;6.60;;;3.90;;
78818;SDS011;68166;55.090;37.460;2023-08-01T05:16:06;8.30;;;4.32;;
78818;SDS011;68166;55.090;37.460;2023-08-01T05:21:08;7.15;;;4.15;;
78818;SDS011;68166;55.090;37.460;2023-08-01T05:26:10;5.30;;;3.28;;
78818;SDS011;68166;55.090;37.460;2023-08-01T05:31:12;8.45;;;3.45;;
78818;SDS011;68166;55.090;37.460;2023-08-01T05:36:14;4.97;;;2.80;;
78818;SDS011;68166;55.090;37.460;2023-08-01T05:41:16;4.28;;;2.70;;
78818;SDS011;68166;55.090;37.460;2023-08-01T05:46:18;5.18;;;2.40;;
78818;SDS011;68166;55.090;37.460;2023-08-01T05:51:20;4.55;;;2.63;;
78818;SDS011;68166;55.090;37.460;2023-08-01T05:56:22;4.72;;;2.42;;
78818;SDS011;68166;55.090;37.460;2023-08-01T06:01:24;5.53;;;2.78;;
78818;SDS011;68166;55.090;37.460;2023-08-01T06:06:26;6.47;;;2.72;;
78818;SDS011;68166;55.090;37.460;2023-08-01T06:11:28;4.65;;;2.95;;
78818;SDS011;68166;55.090;37.460;2023-08-01T06:16:30;3.22;;;2.00;;
78818;SDS011;68166;55.090;37.460;2023-08-01T06:21:32;4.75;;;2.30;;
78818;SDS011;68166;55.090;37.460;2023-08-01T06:26:35;5.35;;;2.58;;
78818;SDS011;68166;55.090;37.460;2023-08-01T06:31:37;6.40;;;2.60;;
78818;SDS011;68166;55.090;37.460;2023-08-01T06:36:39;3.55;;;1.70;;
78818;SDS011;68166;55.090;37.460;2023-08-01T06:41:41;5.00;;;2.30;;
78818;SDS011;68166;55.090;37.460;2023-08-01T06:46:43;3.55;;;2.40;;
78818;SDS011;68166;55.090;37.460;2023-08-01T06:51:45;4.15;;;2.42;;
78818;SDS011;68166;55.090;37.460;2023-08-01T06:56:47;5.95;;;2.25;;
78818;SDS011;68166;55.090;37.460;2023-08-01T07:01:49;4.15;;;1.80;;
78818;SDS011;68166;55.090;37.460;2023-08-01T07:06:51;3.20;;;1.58;;
78818;SDS011;68166;55.090;37.460;2023-08-01T07:11:53;4.72;;;2.08;;
78818;SDS011;68166;55.090;37.460;2023-08-01T07:16:55;3.88;;;1.98;;
78818;SDS011;68166;55.090;37.460;2023-08-01T07:21:57;2.90;;;1.92;;
78818;SDS011;68166;55.090;37.460;2023-08-01T07:26:59;3.45;;;2.13;;
78818;SDS011;68166;55.090;37.460;2023-08-01T07:32:01;5.53;;;1.88;;
78818;SDS011;68166;55.090;37.460;2023-08-01T07:37:03;4.80;;;1.95;;
78818;SDS011;68166;55.090;37.460;2023-08-01T07:42:05;3.17;;;1.88;;
78818;SDS011;68166;55.090;37.460;2023-08-01T07:47:07;4.18;;;1.80;;
78818;SDS011;68166;55.090;37.460;2023-08-01T07:52:09;4.60;;;1.85;;
78818;SDS011;68166;55.090;37.460;2023-08-01T07:57:11;5.85;;;3.50;;
78818;SDS011;68166;55.090;37.460;2023-08-01T08:02:13;3.15;;;1.92;;
78818;SDS011;68166;55.090;37.460;2023-08-01T08:07:15;3.38;;;2.30;;
78818;SDS011;68166;55.090;37.460;2023-08-01T08:12:17;4.18;;;2.25;;
78818;SDS011;68166;55.090;37.460;2023-08-01T08:17:19;5.22;;;2.40;;
78818;SDS011;68166;55.090;37.460;2023-08-01T08:22:21;5.38;;;2.35;;
78818;SDS011;68166;55.090;37.460;2023-08-01T08:27:23;3.47;;;1.73;;
78818;SDS011;68166;55.090;37.460;2023-08-01T08:32:25;5.50;;;2.10;;
78818;SDS011;68166;55.090;37.460;2023-08-01T08:37:27;3.15;;;1.75;;
78818;SDS011;68166;55.090;37.460;2023-08-01T08:42:29;5.00;;;2.25;;
78818;SDS011;68166;55.090;37.460;2023-08-01T08:47:31;5.00;;;2.40;;
78818;SDS011;68166;55.090;37.460;2023-08-01T08:52:37;6.15;;;2.58;;
78818;SDS011;68166;55.090;37.460;2023-08-01T08:57:40;4.22;;;2.75;;
78818;SDS011;68166;55.090;37.460;2023-08-01T09:02:43;5.55;;;2.55;;
78818;SDS011;68166;55.090;37.460;2023-08-01T09:07:45;6.53;;;2.40;;
78818;SDS011;68166;55.090;37.460;2023-08-01T09:12:49;6.68;;;2.40;;
78818;SDS011;68166;55.090;37.460;2023-08-01T09:17:52;8.45;;;2.63;;
78818;SDS011;68166;55.090;37.460;2023-08-01T09:22:57;5.13;;;2.85;;
78818;SDS011;68166;55.090;37.460;2023-08-01T09:27:59;6.03;;;2.35;;
78818;SDS011;68166;55.090;37.460;2023-08-01T09:33:01;3.95;;;2.45;;
78818;SDS011;68166;55.090;37.460;2023-08-01T09:38:03;6.10;;;2.50;;
78818;SDS011;68166;55.090;37.460;2023-08-01T09:43:05;7.32;;;3.00;;
78818;SDS011;68166;55.090;37.460;2023-08-01T09:48:07;5.38;;;2.60;;
78818;SDS011;68166;55.090;37.460;2023-08-01T09:53:09;4.38;;;2.40;;
78818;SDS011;68166;55.090;37.460;2023-08-01T09:58:11;6.72;;;3.08;;
78818;SDS011;68166;55.090;37.460;2023-08-01T10:03:17;3.88;;;2.50;;
78818;SDS011;68166;55.090;37.460;2023-08-01T10:08:19;7.28;;;2.72;;
78818;SDS011;68166;55.090;37.460;2023-08-01T10:13:23;6.97;;;3.03;;
78818;SDS011;68166;55.090;37.460;2023-08-01T10:18:25;9.02;;;3.50;;
78818;SDS011;68166;55.090;37.460;2023-08-01T10:23:30;7.25;;;3.20;;
78818;SDS011;68166;55.090;37.460;2023-08-01T10:28:34;12.27;;;3.50;;
78818;SDS011;68166;55.090;37.460;2023-08-01T10:33:38;6.32;;;2.72;;
78818;SDS011;68166;55.090;37.460;2023-08-01T10:38:59;6.25;;;2.72;;
78818;SDS011;68166;55.090;37.460;2023-08-01T10:44:09;4.88;;;3.03;;
78818;SDS011;68166;55.090;37.460;2023-08-01T10:49:13;8.57;;;2.50;;
78818;SDS011;68166;55.090;37.460;2023-08-01T10:54:19;4.25;;;2.58;;
78818;SDS011;68166;55.090;37.460;2023-08-01T10:59:24;4.05;;;2.78;;
78818;SDS011;68166;55.090;37.460;2023-08-01T11:04:26;4.43;;;2.70;;
78818;SDS011;68166;55.090;37.460;2023-08-01T11:09:28;4.88;;;3.03;;
78818;SDS011;68166;55.090;37.460;2023-08-01T11:14:30;4.45;;;2.33;;
78818;SDS011;68166;55.090;37.460;2023-08-01T11:19:32;6.65;;;3.13;;
78818;SDS011;68166;55.090;37.460;2023-08-01T11:24:34;3.50;;;2.42;;
78818;SDS011;68166;55.090;37.460;2023-08-01T11:29:38;6.32;;;3.20;;
78818;SDS011;68166;55.090;37.460;2023-08-01T11:34:41;5.15;;;2.80;;
78818;SDS011;68166;55.090;37.460;2023-08-01T11:39:45;4.47;;;2.88;;
78818;SDS011;68166;55.090;37.460;2023-08-01T11:44:47;5.10;;;3.22;;
78818;SDS011;68166;55.090;37.460;2023-08-01T11:50:07;4.40;;;3.13;;
78818;SDS011;68166;55.090;37.460;2023-08-01T11:55:17;4.30;;;3.05;;
78818;SDS011;68166;55.090;37.460;2023-08-01T12:00:23;5.70;;;3.25;;
78818;SDS011;68166;55.090;37.460;2023-08-01T12:05:26;4.75;;;2.97;;
78818;SDS011;68166;55.090;37.460;2023-08-01T12:10:36;5.05;;;3.70;;
78818;SDS011;68166;55.090;37.460;2023-08-01T12:15:39;5.88;;;3.83;;
78818;SDS011;68166;55.090;37.460;2023-08-01T12:20:40;6.78;;;3.30;;
78818;SDS011;68166;55.090;37.460;2023-08-01T12:25:43;5.28;;;3.63;;
78818;SDS011;68166;55.090;37.460;2023-08-01T12:30:45;7.00;;;3.67;;
78818;SDS011;68166;55.090;37.460;2023-08-01T12:36:05;7.00;;;3.33;;
78818;SDS011;68166;55.090;37.460;2023-08-01T12:41:07;4.93;;;3.17;;
78818;SDS011;68166;55.090;37.460;2023-08-01T12:46:09;4.03;;;3.15;;
78818;SDS011;68166;55.090;37.460;2023-08-01T12:51:11;4.45;;;3.03;;
78818;SDS011;68166;55.090;37.460;2023-08-01T12:56:15;4.43;;;2.78;;
78818;SDS011;68166;55.090;37.460;2023-08-01T13:01:17;5.30;;;2.65;;
78818;SDS011;68166;55.090;37.460;2023-08-01T13:06:19;4.20;;;2.85;;
78818;SDS011;68166;55.090;37.460;2023-08-01T13:11:21;6.68;;;2.15;;
78818;SDS011;68166;55.090;37.460;2023-08-01T13:16:41;4.03;;;2.15;;
78818;SDS011;68166;55.090;37.460;2023-08-01T13:21:43;4.55;;;2.42;;
78818;SDS011;68166;55.090;37.460;2023-08-01T13:26:45;5.13;;;2.60;;
78818;SDS011;68166;55.090;37.460;2023-08-01T13:31:47;5.50;;;2.55;;
78818;SDS011;68166;55.090;37.460;2023-08-01T13:36:49;3.78;;;2.50;;
78818;SDS011;68166;55.090;37.460;2023-08-01T13:41:51;4.85;;;2.85;;
78818;SDS011;68166;55.090;37.460;2023-08-01T13:46:53;4.75;;;2.80;;
78818;SDS011;68166;55.090;37.460;2023-08-01T13:52:13;4.57;;;2.42;;
78818;SDS011;68166;55.090;37.460;2023-08-01T13:57:33;6.20;;;2.72;;
78818;SDS011;68166;55.090;37.460;2023-08-01T14:02:35;5.40;;;2.50;;
78818;SDS011;68166;55.090;37.460;2023-08-01T14:07:37;4.18;;;2.58;;
78818;SDS011;68166;55.090;37.460;2023-08-01T14:12:39;5.18;;;2.90;;
78818;SDS011;68166;55.090;37.460;2023-08-01T14:17:41;4.30;;;2.35;;
78818;SDS011;68166;55.090;37.460;2023-08-01T14:22:43;3.72;;;2.05;;
78818;SDS011;68166;55.090;37.460;2023-08-01T14:27:46;4.95;;;2.33;;
78818;SDS011;68166;55.090;37.460;2023-08-01T14:32:48;3.58;;;2.00;;
78818;SDS011;68166;55.090;37.460;2023-08-01T14:37:51;3.97;;;2.17;;
78818;SDS011;68166;55.090;37.460;2023-08-01T14:42:53;3.75;;;2.15;;
78818;SDS011;68166;55.090;37.460;2023-08-01T14:47:54;3.65;;;2.22;;
78818;SDS011;68166;55.090;37.460;2023-08-01T14:52:57;4.05;;;2.40;;
78818;SDS011;68166;55.090;37.460;2023-08-01T14:57:59;4.10;;;2.40;;
78818;SDS011;68166;55.090;37.460;2023-08-01T15:03:00;4.30;;;2.35;;
78818;SDS011;68166;55.090;37.460;2023-08-01T15:08:03;5.00;;;2.53;;
78818;SDS011;68166;55.090;37.460;2023-08-01T15:13:06;3.95;;;2.53;;
78818;SDS011;68166;55.090;37.460;2023-08-01T15:18:08;4.55;;;2.70;;
78818;SDS011;68166;55.090;37.460;2023-08-01T15:23:10;4.15;;;2.67;;
78818;SDS011;68166;55.090;37.460;2023-08-01T15:28:12;3.33;;;2.40;;
78818;SDS011;68166;55.090;37.460;2023-08-01T15:33:14;5.30;;;2.50;;
78818;SDS011;68166;55.090;37.460;2023-08-01T15:38:17;5.00;;;2.75;;
78818;SDS011;68166;55.090;37.460;2023-08-01T15:43:20;3.75;;;2.60;;
78818;SDS011;68166;55.090;37.460;2023-08-01T15:48:23;4.93;;;2.65;;
78818;SDS011;68166;55.090;37.460;2023-08-01T15:53:26;5.28;;;3.03;;
78818;SDS011;68166;55.090;37.460;2023-08-01T15:58:28;4.90;;;3.50;;
78818;SDS011;68166;55.090;37.460;2023-08-01T16:03:30;5.85;;;3.30;;
78818;SDS011;68166;55.090;37.460;2023-08-01T16:08:34;4.65;;;2.83;;
78818;SDS011;68166;55.090;37.460;2023-08-01T16:13:36;6.95;;;3.20;;
78818;SDS011;68166;55.090;37.460;2023-08-01T16:18:38;4.63;;;3.22;;
78818;SDS011;68166;55.090;37.460;2023-08-01T16:23:40;4.97;;;3.03;;
78818;SDS011;68166;55.090;37.460;2023-08-01T16:28:42;8.02;;;3.35;;
78818;SDS011;68166;55.090;37.460;2023-08-01T16:33:44;6.45;;;3.72;;
78818;SDS011;68166;55.090;37.460;2023-08-01T16:38:46;6.70;;;3.28;;
78818;SDS011;68166;55.090;37.460;2023-08-01T16:43:48;5.13;;;3.53;;
78818;SDS011;68166;55.090;37.460;2023-08-01T16:48:50;6.85;;;3.45;;
78818;SDS011;68166;55.090;37.460;2023-08-01T16:53:52;6.63;;;4.57;;
78818;SDS011;68166;55.090;37.460;2023-08-01T16:58:54;3.83;;;2.65;;
78818;SDS011;68166;55.090;37.460;2023-08-01T17:03:57;9.63;;;4.28;;
78818;SDS011;68166;55.090;37.460;2023-08-01T17:09:01;6.72;;;3.65;;
78818;SDS011;68166;55.090;37.460;2023-08-01T17:14:03;7.78;;;3.70;;
78818;SDS011;68166;55.090;37.460;2023-08-01T17:19:05;8.02;;;3.70;;
78818;SDS011;68166;55.090;37.460;2023-08-01T17:24:09;6.50;;;3.75;;
78818;SDS011;68166;55.090;37.460;2023-08-01T17:29:11;6.60;;;3.72;;
78818;SDS011;68166;55.090;37.460;2023-08-01T17:34:14;6.38;;;4.13;;
78818;SDS011;68166;55.090;37.460;2023-08-01T17:39:16;8.93;;;4.68;;
78818;SDS011;68166;55.090;37.460;2023-08-01T17:44:18;6.05;;;3.85;;
78818;SDS011;68166;55.090;37.460;2023-08-01T17:49:20;8.02;;;4.38;;
78818;SDS011;68166;55.090;37.460;2023-08-01T17:54:22;8.35;;;4.47;;
78818;SDS011;68166;55.090;37.460;2023-08-01T17:59:24;8.38;;;4.05;;
78818;SDS011;68166;55.090;37.460;2023-08-01T18:04:26;11.07;;;4.63;;
78818;SDS011;68166;55.090;37.460;2023-08-01T18:09:28;7.38;;;4.20;;
78818;SDS011;68166;55.090;37.460;2023-08-01T18:14:32;7.60;;;4.97;;
78818;SDS011;68166;55.090;37.460;2023-08-01T18:19:35;7.07;;;3.97;;
78818;SDS011;68166;55.090;37.460;2023-08-01T18:24:37;7.20;;;5.10;;
78818;SDS011;68166;55.090;37.460;2023-08-01T18:29:39;10.02;;;6.07;;
78818;SDS011;68166;55.090;37.460;2023-08-01T18:34:41;9.70;;;6.63;;
78818;SDS011;68166;55.090;37.460;2023-08-01T18:39:43;11.52;;;6.70;;
78818;SDS011;68166;55.090;37.460;2023-08-01T18:44:45;9.98;;;7.30;;
78818;SDS011;68166;55.090;37.460;2023-08-01T18:49:47;10.13;;;6.95;;
78818;SDS011;68166;55.090;37.460;2023-08-01T18:54:51;12.18;;;6.00;;
78818;SDS011;68166;55.090;37.460;2023-08-01T18:59:53;13.68;;;6.65;;
78818;SDS011;68166;55.090;37.460;2023-08-01T19:04:55;13.93;;;6.68;;
78818;SDS011;68166;55.090;37.460;2023-08-01T19:09:57;18.92;;;7.80;;
78818;SDS011;68166;55.090;37.460;2023-08-01T19:14:59;63.40;;;22.05;;
78818;SDS011;68166;55.090;37.460;2023-08-01T19:20:01;71.88;;;25.20;;
78818;SDS011;68166;55.090;37.460;2023-08-01T19:25:04;88.55;;;27.13;;
78818;SDS011;68166;55.090;37.460;2023-08-01T19:30:08;89.75;;;25.88;;
78818;SDS011;68166;55.090;37.460;2023-08-01T19:35:10;74.70;;;23.60;;
78818;SDS011;68166;55.090;37.460;2023-08-01T19:40:13;64.18;;;23.25;;
78818;SDS011;68166;55.090;37.460;2023-08-01T19:45:15;41.03;;;15.32;;
78818;SDS011;68166;55.090;37.460;2023-08-01T19:50:18;57.05;;;20.20;;
78818;SDS011;68166;55.090;37.460;2023-08-01T19:55:20;39.30;;;13.95;;
78818;SDS011;68166;55.090;37.460;2023-08-01T20:00:22;58.25;;;18.25;;
78818;SDS011;68166;55.090;37.460;2023-08-01T20:05:24;63.50;;;20.25;;
78818;SDS011;68166;55.090;37.460;2023-08-01T20:10:26;52.47;;;18.88;;
78818;SDS011;68166;55.090;37.460;2023-08-01T20:15:30;64.18;;;20.60;;
78818;SDS011;68166;55.090;37.460;2023-08-01T20:20:32;50.78;;;20.13;;
78818;SDS011;68166;55.090;37.460;2023-08-01T20:25:34;61.55;;;19.90;;
78818;SDS011;68166;55.090;37.460;2023-08-01T20:30:37;50.42;;;18.20;;
78818;SDS011;68166;55.090;37.460;2023-08-01T20:35:42;57.20;;;20.08;;
78818;SDS011;68166;55.090;37.460;2023-08-01T20:40:44;55.60;;;20.42;;
78818;SDS011;68166;55.090;37.460;2023-08-01T20:45:46;59.63;;;21.92;;
78818;SDS011;68166;55.090;37.460;2023-08-01T20:50:48;57.80;;;19.52;;
78818;SDS011;68166;55.090;37.460;2023-08-01T20:55:50;57.28;;;20.02;;
78818;SDS011;68166;55.090;37.460;2023-08-01T21:00:58;63.60;;;19.25;;
78818;SDS011;68166;55.090;37.460;2023-08-01T21:06:00;46.92;;;18.05;;
78818;SDS011;68166;55.090;37.460;2023-08-01T21:11:08;44.17;;;15.20;;
78818;SDS011;68166;55.090;37.460;2023-08-01T21:16:12;31.85;;;12.85;;
78818;SDS011;68166;55.090;37.460;2023-08-01T21:21:14;24.70;;;10.70;;
78818;SDS011;68166;55.090;37.460;2023-08-01T21:26:17;18.73;;;8.30;;
78818;SDS011;68166;55.090;37.460;2023-08-01T21:31:18;22.27;;;9.35;;
78818;SDS011;68166;55.090;37.460;2023-08-01T21:36:20;16.17;;;7.65;;
78818;SDS011;68166;55.090;37.460;2023-08-01T21:41:22;13.75;;;6.03;;
78818;SDS011;68166;55.090;37.460;2023-08-01T21:46:24;14.75;;;7.50;;
78818;SDS011;68166;55.090;37.460;2023-08-01T21:51:28;14.82;;;5.82;;
78818;SDS011;68166;55.090;37.460;2023-08-01T21:56:30;10.88;;;5.80;;
78818;SDS011;68166;55.090;37.460;2023-08-01T22:01:32;8.70;;;5.30;;
78818;SDS011;68166;55.090;37.460;2023-08-01T22:06:34;12.85;;;6.07;;
78818;SDS011;68166;55.090;37.460;2023-08-01T22:11:36;9.00;;;4.95;;
78818;SDS011;68166;55.090;37.460;2023-08-01T22:16:38;9.00;;;5.13;;
78818;SDS011;68166;55.090;37.460;2023-08-01T22:21:40;9.00;;;4.22;;
78818;SDS011;68166;55.090;37.460;2023-08-01T22:26:42;9.48;;;4.15;;
78818;SDS011;68166;55.090;37.460;2023-08-01T22:31:44;9.50;;;4.63;;
78818;SDS011;68166;55.090;37.460;2023-08-01T22:36:49;12.55;;;5.35;;
78818;SDS011;68166;55.090;37.460;2023-08-01T22:41:51;8.82;;;5.45;;
78818;SDS011;68166;55.090;37.460;2023-08-01T22:46:53;21.80;;;8.43;;
78818;SDS011;68166;55.090;37.460;2023-08-01T22:51:55;12.00;;;6.03;;
78818;SDS011;68166;55.090;37.460;2023-08-01T22:56:57;16.75;;;6.75;;
78818;SDS011;68166;55.090;37.460;2023-08-01T23:01:59;15.27;;;6.43;;
78818;SDS011;68166;55.090;37.460;2023-08-01T23:07:01;11.70;;;5.10;;
78818;SDS011;68166;55.090;37.460;2023-08-01T23:12:03;11.50;;;5.32;;
78818;SDS011;68166;55.090;37.460;2023-08-01T23:17:05;11.75;;;5.10;;
78818;SDS011;68166;55.090;37.460;2023-08-01T23:22:07;9.75;;;5.35;;
78818;SDS011;68166;55.090;37.460;2023-08-01T23:27:10;13.00;;;6.13;;
78818;SDS011;68166;55.090;37.460;2023-08-01T23:32:11;11.13;;;5.38;;
78818;SDS011;68166;55.090;37.460;2023-08-01T23:37:13;10.15;;;4.88;;
78818;SDS011;68166;55.090;37.460;2023-08-01T23:42:15;11.95;;;5.53;;
78818;SDS011;68166;55.090;37.460;2023-08-01T23:47:18;9.70;;;5.22;;
78818;SDS011;68166;55.090;37.460;2023-08-01T23:52:20;11.40;;;5.53;;
78818;SDS011;68166;55.090;37.460;2023-08-01T23:57:22;10.85;;;5.15;;
